Time;durP1;ratioP1;P1;durP2;ratioP2;P2;SDS_P1;SDS_P2;PMS_P1;PMS_P2;Temp;Humidity;BMP_temperature;BMP_pressure;BME280_temperature;BME280_humidity;BME280_pressure;Samples;Min_cycle;Max_cycle;Signal;HPM_P1;HPM_P2
2022/04/12 00:01:00;;;;;;;;;;;13.60;99.90;;;;;;5015208;28;19909;-77
2022/04/12 00:03:26;;;;;;;;;;;13.60;99.90;;;;;;5015054;28;19909;-78
2022/04/12 00:05:52;;;;;;;;;;;13.70;99.90;;;;;;5015103;28;19964;-77
2022/04/12 00:08:18;;;;;;;;;;;13.70;99.90;;;;;;5014784;28;19964;-78
2022/04/12 00:10:43;;;;;;;;;;;13.50;99.90;;;;;;5014748;28;19910;-77
2022/04/12 00:13:09;;;;;;;;;;;13.50;99.90;;;;;;5014722;28;20370;-78
2022/04/12 00:15:35;;;;;;;;;;;13.50;99.90;;;;;;5014538;28;20393;-77
2022/04/12 00:20:45;;;;;;;;;;;13.50;99.90;;;;;;5014855;28;20024;-77
2022/04/12 00:23:12;;;;;;;;;;;13.50;99.90;;;;;;5014691;28;19997;-78
2022/04/12 00:25:38;;;;;;;;;;;13.60;99.90;;;;;;5014744;28;20348;-77
2022/04/12 00:28:04;;;;;;;;;;;13.50;99.90;;;;;;5014374;28;19964;-78
2022/04/12 00:30:29;;;;;;;;;;;13.50;99.90;;;;;;5014473;28;19910;-77
2022/04/12 00:32:55;;;;;;;;;;;13.50;99.90;;;;;;5014540;28;19910;-78
2022/04/12 00:35:22;;;;;;;;;;;13.60;99.90;;;;;;5014631;28;19913;-78
2022/04/12 00:37:48;;;;;;;;;;;13.50;99.90;;;;;;5014449;28;19949;-77
2022/04/12 00:40:14;;;;;;;;;;;13.60;99.90;;;;;;4996619;28;19941;-78
2022/04/12 00:42:40;;;;;;;;;;;13.40;99.90;;;;;;5014294;28;19909;-77
2022/04/12 00:45:06;;;;;;;;;;;13.30;99.90;;;;;;5014286;28;19916;-78
2022/04/12 00:47:32;;;;;;;;;;;13.30;99.90;;;;;;5014071;28;19948;-77
2022/04/12 00:49:58;;;;;;;;;;;13.30;99.90;;;;;;5014189;28;20004;-78
2022/04/12 00:52:24;;;;;;;;;;;13.40;99.90;;;;;;5014092;28;19910;-77
2022/04/12 00:54:50;;;;;;;;;;;13.40;99.90;;;;;;5014105;28;20381;-77
2022/04/12 00:57:16;;;;;;;;;;;13.50;99.90;;;;;;5014248;28;19949;-77
2022/04/12 00:59:43;;;;;;;;;;;13.50;99.90;;;;;;5014274;28;20293;-77
2022/04/12 01:02:09;;;;;;;;;;;13.60;99.90;;;;;;5013302;28;19910;-77
2022/04/12 01:04:34;;;;;;;;;;;13.70;99.90;;;;;;4996394;28;20286;-79
2022/04/12 01:07:00;;;;;;;;;;;13.80;99.90;;;;;;5013933;28;20008;-77
2022/04/12 01:09:27;;;;;;;;;;;13.80;99.90;;;;;;5013897;28;19913;-76
2022/04/12 01:11:53;;;;;;;;;;;13.70;99.90;;;;;;5013948;28;19959;-78
2022/04/12 01:14:19;;;;;;;;;;;13.60;99.90;;;;;;5013692;28;19921;-77
2022/04/12 01:16:44;;;;;;;;;;;13.50;99.90;;;;;;5013919;28;20000;-78
2022/04/12 01:19:10;;;;;;;;;;;13.50;99.90;;;;;;5013890;28;19910;-78
2022/04/12 01:21:39;;;;;;;;;;;13.50;99.90;;;;;;5013832;28;19910;-77
2022/04/12 01:24:05;;;;;;;;;;;13.60;99.90;;;;;;4996194;28;19917;-77
2022/04/12 01:26:32;;;;;;;;;;;13.70;99.90;;;;;;5013919;28;20000;-77
2022/04/12 01:28:58;;;;;;;;;;;13.70;99.90;;;;;;5013904;28;19913;-77
2022/04/12 01:31:24;;;;;;;;;;;13.80;99.90;;;;;;4996147;28;20263;-77
2022/04/12 01:33:50;;;;;;;;;;;13.90;99.90;;;;;;5013747;28;19909;-78
2022/04/12 01:36:16;;;;;;;;;;;13.90;99.90;;;;;;5013929;28;19917;-78
2022/04/12 01:38:41;;;;;;;;;;;14.00;99.90;;;;;;5013925;28;19909;-77
2022/04/12 01:41:07;;;;;;;;;;;14.00;99.90;;;;;;5013877;28;19964;-77
2022/04/12 01:43:33;;;;;;;;;;;14.00;99.90;;;;;;5013659;28;19964;-77
2022/04/12 01:45:58;;;;;;;;;;;14.00;99.90;;;;;;5013609;28;19910;-78
2022/04/12 01:48:27;;;;;;;;;;;14.00;99.90;;;;;;5013739;28;19967;-77
2022/04/12 01:50:52;;;;;;;;;;;14.00;99.90;;;;;;5013871;28;19910;-77
2022/04/12 01:53:18;;;;;;;;;;;14.10;99.90;;;;;;5013654;28;19917;-78
2022/04/12 01:55:43;;;;;;;;;;;14.10;99.90;;;;;;5013676;28;19955;-78
2022/04/12 01:58:09;;;;;;;;;;;14.10;99.90;;;;;;5013524;28;20004;-77
2022/04/12 02:00:36;;;;;;;;;;;14.10;99.90;;;;;;5013526;28;20428;-77
2022/04/12 02:03:04;;;;;;;;;;;14.20;99.90;;;;;;5013606;28;20300;-78
2022/04/12 02:05:30;;;;;;;;;;;14.20;99.90;;;;;;5013586;28;19955;-77
2022/04/12 02:07:56;;;;;;;;;;;14.20;99.90;;;;;;4995758;28;19957;-78
2022/04/12 02:10:22;;;;;;;;;;;14.30;99.90;;;;;;5013383;28;19913;-77
2022/04/12 02:12:48;;;;;;;;;;;14.40;99.90;;;;;;5013410;28;19909;-78
2022/04/12 02:15:14;;;;;;;;;;;14.50;99.90;;;;;;4998814;28;19957;-77
2022/04/12 02:17:39;;;;;;;;;;;14.60;99.90;;;;;;5016929;28;19975;-78
2022/04/12 02:20:05;;;;;;;;;;;14.50;99.90;;;;;;4999340;28;19917;-77
2022/04/12 02:22:30;;;;;;;;;;;14.40;99.90;;;;;;5016913;28;20432;-78
2022/04/12 02:24:56;;;;;;;;;;;14.50;99.90;;;;;;5016938;28;19960;-77
2022/04/12 02:27:21;;;;;;;;;;;14.50;99.90;;;;;;5016684;28;20358;-77
2022/04/12 02:29:47;;;;;;;;;;;14.50;99.90;;;;;;4999061;28;20014;-77
2022/04/12 02:32:13;;;;;;;;;;;14.40;99.90;;;;;;5017035;28;19924;-77
2022/04/12 02:34:38;;;;;;;;;;;14.50;99.90;;;;;;5016599;28;20377;-78
2022/04/12 02:37:04;;;;;;;;;;;14.30;99.90;;;;;;5016539;28;19909;-77
2022/04/12 02:39:30;;;;;;;;;;;13.90;99.90;;;;;;5016630;28;20281;-77
2022/04/12 02:41:55;;;;;;;;;;;13.80;99.90;;;;;;4998769;28;20380;-76
2022/04/12 02:44:21;;;;;;;;;;;13.70;99.90;;;;;;5016409;28;19914;-77
2022/04/12 02:46:46;;;;;;;;;;;13.70;99.90;;;;;;4998944;28;19961;-76
2022/04/12 02:49:12;;;;;;;;;;;13.70;99.90;;;;;;5016394;28;19910;-77
2022/04/12 02:51:38;;;;;;;;;;;13.60;99.90;;;;;;5016309;28;19909;-76
2022/04/12 02:54:03;;;;;;;;;;;13.40;99.90;;;;;;5016291;28;19909;-77
2022/04/12 02:56:29;;;;;;;;;;;13.30;99.90;;;;;;5016386;28;20280;-77
2022/04/12 02:58:54;;;;;;;;;;;13.20;99.90;;;;;;5016246;28;20361;-78
2022/04/12 03:01:20;;;;;;;;;;;13.10;99.90;;;;;;5016158;28;20001;-77
2022/04/12 03:03:46;;;;;;;;;;;13.10;99.90;;;;;;5016073;28;19932;-78
2022/04/12 03:06:11;;;;;;;;;;;13.00;99.90;;;;;;5016013;28;19994;-77
2022/04/12 03:08:37;;;;;;;;;;;12.90;99.90;;;;;;5015938;28;19920;-79
2022/04/12 03:11:03;;;;;;;;;;;12.80;99.90;;;;;;5015875;28;19910;-78
2022/04/12 03:13:28;;;;;;;;;;;12.80;99.90;;;;;;5015923;28;20325;-77
2022/04/12 03:15:54;;;;;;;;;;;12.80;99.90;;;;;;4997831;28;20008;-77
2022/04/12 03:18:20;;;;;;;;;;;12.80;99.90;;;;;;4998170;28;20007;-79
2022/04/12 03:20:45;;;;;;;;;;;12.80;99.90;;;;;;5015822;28;19945;-78
2022/04/12 03:23:11;;;;;;;;;;;12.80;99.90;;;;;;5015691;28;19913;-77
2022/04/12 03:25:38;;;;;;;;;;;12.80;99.90;;;;;;5014477;28;19909;-79
2022/04/12 03:28:04;;;;;;;;;;;12.70;99.90;;;;;;5015569;28;19968;-79
2022/04/12 03:30:30;;;;;;;;;;;12.60;99.90;;;;;;5015500;28;19945;-79
2022/04/12 03:32:55;;;;;;;;;;;12.60;99.90;;;;;;5015911;28;19916;-79
2022/04/12 03:35:21;;;;;;;;;;;12.60;99.90;;;;;;5015431;28;20290;-80
2022/04/12 03:37:47;;;;;;;;;;;12.50;99.90;;;;;;5015586;28;19932;-79
2022/04/12 03:40:13;;;;;;;;;;;12.50;99.90;;;;;;5015501;28;19909;-79
2022/04/12 03:42:39;;;;;;;;;;;12.50;99.90;;;;;;5015603;28;19910;-78
2022/04/12 03:45:05;;;;;;;;;;;12.50;99.90;;;;;;5015346;28;19910;-78
2022/04/12 03:47:30;;;;;;;;;;;12.50;99.90;;;;;;5015220;28;20000;-77
2022/04/12 03:49:56;;;;;;;;;;;12.50;99.90;;;;;;5015630;28;19949;-78
2022/04/12 03:52:22;;;;;;;;;;;12.60;99.90;;;;;;5015085;28;20538;-77
2022/04/12 03:54:47;;;;;;;;;;;12.70;99.90;;;;;;5015124;28;19948;-78
2022/04/12 03:57:13;;;;;;;;;;;12.70;99.90;;;;;;4997380;28;20032;-77
2022/04/12 03:59:39;;;;;;;;;;;12.80;99.90;;;;;;5014971;28;19981;-78
2022/04/12 04:02:04;;;;;;;;;;;12.80;99.90;;;;;;4997341;28;19921;-78
2022/04/12 04:04:30;;;;;;;;;;;12.80;99.90;;;;;;5015127;28;19913;-78
2022/04/12 04:06:55;;;;;;;;;;;12.80;99.90;;;;;;5014726;28;19909;-77
2022/04/12 04:09:21;;;;;;;;;;;12.70;99.90;;;;;;4997158;28;20004;-77
2022/04/12 04:11:48;;;;;;;;;;;12.80;99.90;;;;;;4997026;28;20004;-77
2022/04/12 04:14:15;;;;;;;;;;;12.90;99.90;;;;;;5014579;28;19921;-78
2022/04/12 04:16:41;;;;;;;;;;;12.90;99.90;;;;;;5014757;28;20439;-77
2022/04/12 04:19:09;;;;;;;;;;;13.00;99.90;;;;;;5014635;28;19960;-77
2022/04/12 04:21:35;;;;;;;;;;;13.00;99.90;;;;;;5014575;28;19909;-76
2022/04/12 04:24:01;;;;;;;;;;;13.00;99.90;;;;;;4996935;28;19909;-77
2022/04/12 04:26:26;;;;;;;;;;;13.00;99.90;;;;;;5014593;28;19909;-77
2022/04/12 04:28:52;;;;;;;;;;;13.00;99.90;;;;;;5014430;28;19953;-77
2022/04/12 04:31:17;;;;;;;;;;;13.00;99.90;;;;;;5014802;28;20358;-78
2022/04/12 04:33:43;;;;;;;;;;;13.00;99.90;;;;;;5014424;28;20000;-77
2022/04/12 04:36:08;;;;;;;;;;;13.10;99.90;;;;;;5014002;28;19910;-78
2022/04/12 04:38:34;;;;;;;;;;;13.00;99.90;;;;;;5014322;28;19916;-77
2022/04/12 04:40:59;;;;;;;;;;;13.00;99.90;;;;;;5014675;28;19910;-77
2022/04/12 04:43:26;;;;;;;;;;;12.90;99.90;;;;;;5014323;28;19909;-77
2022/04/12 04:45:52;;;;;;;;;;;12.90;99.90;;;;;;5014256;28;19957;-77
2022/04/12 04:48:17;;;;;;;;;;;13.00;99.90;;;;;;5014198;28;20377;-78
2022/04/12 04:50:43;;;;;;;;;;;13.00;99.90;;;;;;5014613;28;19992;-78
2022/04/12 04:53:11;;;;;;;;;;;12.90;99.90;;;;;;5014316;28;19951;-77
2022/04/12 04:55:37;;;;;;;;;;;12.90;99.90;;;;;;4996508;28;20374;-77
2022/04/12 04:58:04;;;;;;;;;;;12.70;99.90;;;;;;5014041;28;20000;-77
2022/04/12 05:00:31;;;;;;;;;;;12.80;99.90;;;;;;4996375;28;19909;-77
2022/04/12 05:02:57;;;;;;;;;;;12.60;99.90;;;;;;5014074;28;19909;-77
2022/04/12 05:05:23;;;;;;;;;;;12.70;99.90;;;;;;5013987;28;19909;-78
2022/04/12 05:07:49;;;;;;;;;;;12.80;99.90;;;;;;4996204;28;19914;-77
2022/04/12 05:10:16;;;;;;;;;;;12.70;99.90;;;;;;4996166;28;20007;-77
2022/04/12 05:12:41;;;;;;;;;;;12.60;99.90;;;;;;5013865;28;20374;-77
2022/04/12 05:15:07;;;;;;;;;;;12.60;99.90;;;;;;4996063;28;19928;-77
2022/04/12 05:17:33;;;;;;;;;;;12.40;99.90;;;;;;5013837;28;20428;-78
2022/04/12 05:19:59;;;;;;;;;;;12.20;99.90;;;;;;5013790;28;19909;-76
2022/04/12 05:22:25;;;;;;;;;;;12.10;99.90;;;;;;5013941;28;19945;-77
2022/04/12 05:24:51;;;;;;;;;;;12.10;99.90;;;;;;5013755;28;19909;-78
2022/04/12 05:27:16;;;;;;;;;;;12.10;99.90;;;;;;5013643;28;19920;-76
2022/04/12 05:29:42;;;;;;;;;;;12.10;99.90;;;;;;5013778;28;19909;-76
2022/04/12 05:32:09;;;;;;;;;;;12.00;99.90;;;;;;5013772;28;20008;-77
2022/04/12 05:34:38;;;;;;;;;;;12.00;99.90;;;;;;5013680;28;19932;-77
2022/04/12 05:37:04;;;;;;;;;;;12.00;99.90;;;;;;5013699;28;20288;-77
2022/04/12 05:39:29;;;;;;;;;;;12.00;99.90;;;;;;5012390;28;19910;-77
2022/04/12 05:42:00;;;;;;;;;;;12.00;99.90;;;;;;5013894;28;20419;-78
2022/04/12 05:44:26;;;;;;;;;;;11.90;99.90;;;;;;5013687;28;19909;-76
2022/04/12 05:46:52;;;;;;;;;;;11.90;99.90;;;;;;4995970;28;19913;-77
2022/04/12 05:49:17;;;;;;;;;;;12.00;99.90;;;;;;4997875;28;19909;-77
2022/04/12 05:51:43;;;;;;;;;;;11.90;99.90;;;;;;4999832;28;19917;-77
2022/04/12 05:54:08;;;;;;;;;;;12.00;99.90;;;;;;5017482;28;19916;-78
2022/04/12 05:56:34;;;;;;;;;;;12.10;99.90;;;;;;4999798;28;20274;-77
2022/04/12 05:58:59;;;;;;;;;;;12.20;99.90;;;;;;5017275;28;19948;-77
2022/04/12 06:01:25;;;;;;;;;;;12.20;99.90;;;;;;5017306;28;20293;-77
2022/04/12 06:03:51;;;;;;;;;;;12.20;99.90;;;;;;5017352;28;19914;-78
2022/04/12 06:06:16;;;;;;;;;;;12.20;99.90;;;;;;5017265;28;19910;-78
2022/04/12 06:08:42;;;;;;;;;;;12.30;99.90;;;;;;5017053;28;19913;-77
2022/04/12 06:11:07;;;;;;;;;;;12.30;99.90;;;;;;5016979;28;19910;-77
2022/04/12 06:13:33;;;;;;;;;;;12.30;99.90;;;;;;5017191;28;19910;-77
2022/04/12 06:15:58;;;;;;;;;;;12.30;99.90;;;;;;5016805;28;20407;-77
2022/04/12 06:18:24;;;;;;;;;;;12.30;99.90;;;;;;5016977;28;19921;-77
2022/04/12 06:20:49;;;;;;;;;;;12.40;99.90;;;;;;5016882;28;19916;-77
2022/04/12 06:23:17;;;;;;;;;;;12.40;99.90;;;;;;5017049;28;19964;-76
2022/04/12 06:25:43;;;;;;;;;;;12.50;99.90;;;;;;5016752;28;19910;-77
2022/04/12 06:28:09;;;;;;;;;;;12.80;99.90;;;;;;5016653;28;20325;-78
2022/04/12 06:30:34;;;;;;;;;;;12.90;99.90;;;;;;5016786;28;19997;-77
2022/04/12 06:33:00;;;;;;;;;;;12.90;99.90;;;;;;4998983;28;19916;-78
2022/04/12 06:35:26;;;;;;;;;;;12.90;99.90;;;;;;5016575;28;19914;-78
2022/04/12 06:37:53;;;;;;;;;;;13.10;99.90;;;;;;5016549;28;19914;-77
2022/04/12 06:40:19;;;;;;;;;;;13.20;99.90;;;;;;5016657;28;19910;-77
2022/04/12 06:42:46;;;;;;;;;;;13.30;99.90;;;;;;5016494;28;19932;-77
2022/04/12 06:45:11;;;;;;;;;;;13.20;99.90;;;;;;5016587;28;19914;-77
2022/04/12 06:47:37;;;;;;;;;;;13.10;99.90;;;;;;5016333;28;19928;-78
2022/04/12 06:50:04;;;;;;;;;;;13.20;99.90;;;;;;5016363;28;19917;-77
2022/04/12 06:52:30;;;;;;;;;;;13.20;99.90;;;;;;5016388;28;19909;-77
2022/04/12 06:54:56;;;;;;;;;;;13.10;99.90;;;;;;4998534;28;19910;-78
2022/04/12 06:57:21;;;;;;;;;;;13.10;99.90;;;;;;5015954;28;19917;-78
2022/04/12 06:59:47;;;;;;;;;;;13.10;99.90;;;;;;5015584;28;20429;-78
2022/04/12 07:02:13;;;;;;;;;;;13.00;99.90;;;;;;5016065;28;19910;-78
2022/04/12 07:04:38;;;;;;;;;;;13.00;99.90;;;;;;5015956;28;20015;-79
2022/04/12 07:07:04;;;;;;;;;;;13.10;99.90;;;;;;5015956;28;19910;-78
2022/04/12 07:09:30;;;;;;;;;;;13.00;99.90;;;;;;5015865;28;19915;-78
2022/04/12 07:11:56;;;;;;;;;;;13.00;99.90;;;;;;5016091;28;19910;-79
2022/04/12 07:14:22;;;;;;;;;;;13.00;99.90;;;;;;4998048;28;19925;-76
2022/04/12 07:16:48;;;;;;;;;;;12.90;99.90;;;;;;5015855;28;20363;-78
2022/04/12 07:19:14;;;;;;;;;;;12.80;99.90;;;;;;5015976;28;20000;-78
2022/04/12 07:21:40;;;;;;;;;;;12.90;99.90;;;;;;5015745;28;19941;-77
2022/04/12 07:24:08;;;;;;;;;;;12.90;99.90;;;;;;5015848;28;19916;-77
2022/04/12 07:26:34;;;;;;;;;;;12.90;99.90;;;;;;5015718;28;19916;-78
2022/04/12 07:29:00;;;;;;;;;;;12.80;99.90;;;;;;4998019;28;19913;-77
2022/04/12 07:31:26;;;;;;;;;;;12.70;99.90;;;;;;5015567;28;19916;-78
2022/04/12 07:33:52;;;;;;;;;;;12.70;99.90;;;;;;5015696;28;19997;-77
2022/04/12 07:36:17;;;;;;;;;;;12.70;99.90;;;;;;5015727;28;19940;-78
2022/04/12 07:38:43;;;;;;;;;;;12.80;99.90;;;;;;5015401;28;19910;-77
2022/04/12 07:41:09;;;;;;;;;;;12.80;99.90;;;;;;5015418;28;19917;-77
2022/04/12 07:43:37;;;;;;;;;;;12.80;99.90;;;;;;5015291;28;19910;-77
2022/04/12 07:46:04;;;;;;;;;;;12.80;99.90;;;;;;5015244;28;19910;-78
2022/04/12 07:48:29;;;;;;;;;;;12.90;99.90;;;;;;5015256;28;20397;-77
2022/04/12 07:50:55;;;;;;;;;;;12.90;99.90;;;;;;5015266;28;19936;-76
2022/04/12 07:53:20;;;;;;;;;;;13.00;99.90;;;;;;4997595;28;20369;-78
2022/04/12 07:55:46;;;;;;;;;;;13.00;99.90;;;;;;5015394;28;19909;-76
2022/04/12 07:58:12;;;;;;;;;;;13.10;99.90;;;;;;5015372;28;19949;-77
2022/04/12 08:00:37;;;;;;;;;;;13.10;99.90;;;;;;5014998;28;19962;-77
2022/04/12 08:03:03;;;;;;;;;;;13.20;99.90;;;;;;5015371;28;20004;-78
2022/04/12 08:05:29;;;;;;;;;;;13.20;99.90;;;;;;5014880;28;19910;-78
2022/04/12 08:07:54;;;;;;;;;;;13.20;99.90;;;;;;5014883;28;20366;-78
2022/04/12 08:10:20;;;;;;;;;;;13.10;99.90;;;;;;5014873;28;19910;-76
2022/04/12 08:12:46;;;;;;;;;;;13.20;99.90;;;;;;5014089;28;19910;-76
2022/04/12 08:15:12;;;;;;;;;;;13.30;99.90;;;;;;4996944;28;19931;-77
2022/04/12 08:17:38;;;;;;;;;;;13.30;99.90;;;;;;5014655;28;19910;-78
2022/04/12 08:20:05;;;;;;;;;;;13.30;99.90;;;;;;5014819;28;20317;-78
2022/04/12 08:22:31;;;;;;;;;;;13.30;99.90;;;;;;5014760;28;19910;-78
2022/04/12 08:24:58;;;;;;;;;;;13.40;99.90;;;;;;5014884;28;20281;-77
2022/04/12 08:27:24;;;;;;;;;;;13.40;99.90;;;;;;4996851;28;19914;-77
2022/04/12 08:29:50;;;;;;;;;;;13.40;99.90;;;;;;5014748;28;19910;-79
2022/04/12 08:32:16;;;;;;;;;;;13.50;99.90;;;;;;5014493;28;19963;-79
2022/04/12 08:34:42;;;;;;;;;;;13.70;99.90;;;;;;5014720;28;20262;-78
2022/04/12 08:37:07;;;;;;;;;;;13.80;99.90;;;;;;5014327;28;19940;-78
2022/04/12 08:39:33;;;;;;;;;;;13.80;99.90;;;;;;5014356;28;19909;-77
2022/04/12 08:42:00;;;;;;;;;;;13.80;99.90;;;;;;5014325;28;19940;-78
2022/04/12 08:44:26;;;;;;;;;;;13.80;99.90;;;;;;5014336;28;20370;-78
2022/04/12 08:46:52;;;;;;;;;;;13.80;99.90;;;;;;5014281;28;19914;-78
2022/04/12 08:49:18;;;;;;;;;;;13.80;99.90;;;;;;5014238;28;19910;-76
2022/04/12 08:51:45;;;;;;;;;;;13.80;99.90;;;;;;5014763;28;19960;-78
2022/04/12 08:54:11;;;;;;;;;;;13.70;99.90;;;;;;4996496;28;19909;-78
2022/04/12 08:56:37;;;;;;;;;;;13.70;99.90;;;;;;5014115;28;19916;-77
2022/04/12 08:59:03;;;;;;;;;;;13.80;99.90;;;;;;5014058;28;19924;-77
2022/04/12 09:01:29;;;;;;;;;;;13.90;99.90;;;;;;5014083;28;20281;-77
2022/04/12 09:03:54;;;;;;;;;;;13.80;99.90;;;;;;5014300;28;19988;-78
2022/04/12 09:06:20;;;;;;;;;;;13.70;99.90;;;;;;5014029;28;19917;-76
2022/04/12 09:08:46;;;;;;;;;;;13.70;99.90;;;;;;5013851;28;19921;-77
2022/04/12 09:11:13;;;;;;;;;;;13.80;99.90;;;;;;5013809;28;20011;-77
2022/04/12 09:13:40;;;;;;;;;;;13.80;99.90;;;;;;4996094;28;19956;-77
2022/04/12 09:16:09;;;;;;;;;;;13.70;99.90;;;;;;5014261;28;19935;-77
2022/04/12 09:18:35;;;;;;;;;;;13.70;99.90;;;;;;5013831;28;19917;-77
2022/04/12 09:21:11;;;;;;;;;;;13.60;99.90;;;;;;4996166;28;19910;-78
2022/04/12 09:23:36;;;;;;;;;;;13.60;99.90;;;;;;5016353;28;19939;-78
2022/04/12 09:26:02;;;;;;;;;;;13.70;99.90;;;;;;5000318;28;19921;-76
2022/04/12 09:28:41;;;;;;;;;;;13.70;99.90;;;;;;5017701;28;20070;-77
2022/04/12 09:31:13;;;;;;;;;;;13.70;99.90;;;;;;5017814;28;19913;-76
2022/04/12 09:33:40;;;;;;;;;;;13.70;99.90;;;;;;5000129;28;19909;-77
2022/04/12 09:36:06;;;;;;;;;;;13.70;99.90;;;;;;5017808;28;19913;-78
2022/04/12 09:38:32;;;;;;;;;;;13.70;99.90;;;;;;5017726;28;19913;-78
2022/04/12 09:41:12;;;;;;;;;;;13.60;99.90;;;;;;4999982;28;19915;-78
2022/04/12 09:44:05;;;;;;;;;;;13.60;99.90;;;;;;5017569;28;19909;-76
2022/04/12 09:46:32;;;;;;;;;;;13.50;99.90;;;;;;5017008;28;19952;-76
2022/04/12 09:48:57;;;;;;;;;;;13.50;99.90;;;;;;5017419;28;19914;-77
2022/04/12 09:51:23;;;;;;;;;;;13.40;99.90;;;;;;5017528;28;19964;-76
2022/04/12 09:53:49;;;;;;;;;;;13.40;99.90;;;;;;5016431;28;20273;-76
2022/04/12 09:56:29;;;;;;;;;;;13.30;99.90;;;;;;5017413;28;19909;-78
2022/04/12 09:58:56;;;;;;;;;;;13.30;99.90;;;;;;4999484;28;19909;-76
2022/04/12 10:01:22;;;;;;;;;;;13.30;99.90;;;;;;4999652;28;19913;-78
2022/04/12 10:03:52;;;;;;;;;;;13.40;99.90;;;;;;5017173;28;19910;-77
2022/04/12 10:06:19;;;;;;;;;;;13.40;99.90;;;;;;5017137;28;19917;-76
2022/04/12 10:08:46;;;;;;;;;;;13.50;99.90;;;;;;5017118;28;20012;-77
2022/04/12 10:11:13;;;;;;;;;;;13.50;99.90;;;;;;5016901;28;19917;-77
2022/04/12 10:13:39;;;;;;;;;;;13.50;99.90;;;;;;5016904;28;19913;-77
2022/04/12 10:16:06;;;;;;;;;;;13.50;99.90;;;;;;5017134;28;19967;-78
2022/04/12 10:18:33;;;;;;;;;;;13.60;99.90;;;;;;4999180;28;19919;-77
2022/04/12 10:20:59;;;;;;;;;;;13.50;99.90;;;;;;5016935;28;19973;-78
2022/04/12 10:23:26;;;;;;;;;;;13.40;99.90;;;;;;5016834;28;19945;-77
2022/04/12 10:25:53;;;;;;;;;;;13.50;99.90;;;;;;5017085;28;19914;-78
2022/04/12 10:28:19;;;;;;;;;;;13.30;99.90;;;;;;4999064;28;20028;-77
2022/04/12 10:30:45;;;;;;;;;;;13.30;99.90;;;;;;5016970;28;19979;-78
2022/04/12 10:33:24;;;;;;;;;;;13.60;99.90;;;;;;5016852;28;20374;-78
2022/04/12 10:35:56;;;;;;;;;;;13.70;99.90;;;;;;5016226;28;20001;-78
2022/04/12 10:38:25;;;;;;;;;;;13.70;99.90;;;;;;5006121;28;19925;-78
2022/04/12 10:40:52;;;;;;;;;;;13.70;99.90;;;;;;5000710;28;19909;-79
2022/04/12 10:43:23;;;;;;;;;;;13.60;99.90;;;;;;5004993;28;20281;-78
2022/04/12 10:45:49;;;;;;;;;;;13.50;99.90;;;;;;5006758;28;20298;-79
2022/04/12 10:48:19;;;;;;;;;;;13.60;99.90;;;;;;5004555;28;19913;-78
2022/04/12 10:50:46;;;;;;;;;;;13.70;99.90;;;;;;5006221;28;19925;-78
2022/04/12 10:53:12;;;;;;;;;;;13.60;99.90;;;;;;5006393;28;19920;-79
2022/04/12 10:55:40;;;;;;;;;;;13.70;99.90;;;;;;5005002;28;20392;-79
2022/04/12 10:58:28;;;;;;;;;;;13.80;99.90;;;;;;5005685;28;19909;-78
2022/04/12 11:00:54;;;;;;;;;;;14.10;99.90;;;;;;5009442;28;19910;-78
2022/04/12 11:03:25;;;;;;;;;;;14.10;99.90;;;;;;5005146;28;19953;-79
2022/04/12 11:05:55;;;;;;;;;;;14.30;99.90;;;;;;5000739;28;19917;-79
2022/04/12 11:08:21;;;;;;;;;;;14.20;99.90;;;;;;5004855;28;19920;-78
2022/04/12 11:10:54;;;;;;;;;;;14.30;99.90;;;;;;5004776;28;19910;-78
2022/04/12 11:13:23;;;;;;;;;;;14.30;99.90;;;;;;5006582;28;19924;-79
2022/04/12 11:16:03;;;;;;;;;;;14.40;99.90;;;;;;5003719;28;20042;-78
2022/04/12 11:18:45;;;;;;;;;;;14.40;99.90;;;;;;5006494;28;19932;-79
2022/04/12 11:21:11;;;;;;;;;;;14.30;99.90;;;;;;5006411;28;19909;-78
2022/04/12 11:23:54;;;;;;;;;;;14.50;99.90;;;;;;5006953;28;20032;-77
2022/04/12 11:26:40;;;;;;;;;;;15.00;99.90;;;;;;5003691;28;20350;-79
2022/04/12 11:29:10;;;;;;;;;;;15.80;99.90;;;;;;5008261;28;19913;-78
2022/04/12 11:31:40;;;;;;;;;;;15.90;99.90;;;;;;5003619;28;19942;-78
2022/04/12 11:34:06;;;;;;;;;;;15.70;99.90;;;;;;5006296;28;19914;-78
2022/04/12 11:36:32;;;;;;;;;;;15.70;99.90;;;;;;5008975;28;20020;-78
2022/04/12 11:38:58;;;;;;;;;;;15.70;99.90;;;;;;5006872;28;19914;-77
2022/04/12 11:41:23;;;;;;;;;;;15.80;99.90;;;;;;4999957;28;19910;-78
2022/04/12 11:43:57;;;;;;;;;;;15.70;99.90;;;;;;4995804;28;19910;-77
2022/04/12 11:46:23;;;;;;;;;;;15.90;99.90;;;;;;4995027;28;20278;-77
2022/04/12 11:48:48;;;;;;;;;;;15.80;99.90;;;;;;4995625;28;19920;-78
2022/04/12 11:51:16;;;;;;;;;;;15.80;99.90;;;;;;4995616;28;19988;-78
2022/04/12 11:53:47;;;;;;;;;;;15.70;99.90;;;;;;4977884;28;19968;-78
2022/04/12 11:56:12;;;;;;;;;;;15.50;99.90;;;;;;4995792;28;20386;-77
2022/04/12 11:58:38;;;;;;;;;;;15.60;99.90;;;;;;4995494;28;19988;-77
2022/04/12 12:01:04;;;;;;;;;;;16.60;99.90;;;;;;4995663;28;20000;-77
2022/04/12 12:03:31;;;;;;;;;;;18.50;99.90;;;;;;4995449;28;19917;-78
2022/04/12 12:05:57;;;;;;;;;;;19.10;99.90;;;;;;4995338;28;19910;-78
2022/04/12 12:08:23;;;;;;;;;;;18.90;99.90;;;;;;4995410;28;19948;-78
2022/04/12 12:10:52;;;;;;;;;;;18.80;99.90;;;;;;4993913;28;19910;-78
2022/04/12 12:13:22;;;;;;;;;;;18.40;99.90;;;;;;4977686;28;19960;-78
2022/04/12 12:15:47;;;;;;;;;;;18.40;99.90;;;;;;4977282;28;19944;-77
2022/04/12 12:18:15;;;;;;;;;;;17.90;99.90;;;;;;4995148;28;20362;-78
2022/04/12 12:20:41;;;;;;;;;;;17.50;99.90;;;;;;4977665;28;19956;-77
2022/04/12 12:23:10;;;;;;;;;;;17.20;99.90;;;;;;4995025;28;20271;-78
2022/04/12 12:25:43;;;;;;;;;;;17.40;99.90;;;;;;4995002;28;19933;-78
2022/04/12 12:28:10;;;;;;;;;;;17.40;99.90;;;;;;4995208;28;19953;-77
2022/04/12 12:30:35;;;;;;;;;;;17.20;99.90;;;;;;4994931;28;19952;-78
2022/04/12 12:33:01;;;;;;;;;;;17.40;99.90;;;;;;4994838;28;19953;-77
2022/04/12 12:35:27;;;;;;;;;;;17.30;99.90;;;;;;4994865;28;20278;-77
2022/04/12 12:38:06;;;;;;;;;;;17.20;99.90;;;;;;4994863;28;20381;-78
2022/04/12 12:40:32;;;;;;;;;;;17.10;99.90;;;;;;4995314;28;19957;-78
2022/04/12 12:43:00;;;;;;;;;;;16.70;99.90;;;;;;4977228;28;20321;-78
2022/04/12 12:45:26;;;;;;;;;;;16.40;99.90;;;;;;4977177;28;20051;-77
2022/04/12 12:47:56;;;;;;;;;;;16.20;99.90;;;;;;4994752;28;20020;-77
2022/04/12 12:50:23;;;;;;;;;;;16.70;99.90;;;;;;4994788;28;19941;-78
2022/04/12 12:52:49;;;;;;;;;;;16.70;99.90;;;;;;4994736;28;19917;-78
2022/04/12 12:55:19;;;;;;;;;;;16.70;99.90;;;;;;4994819;28;19910;-76
2022/04/12 12:57:44;;;;;;;;;;;16.80;99.90;;;;;;4994246;28;19964;-79
2022/04/12 13:00:10;;;;;;;;;;;17.20;99.90;;;;;;4994515;28;19961;-77
2022/04/12 13:02:36;;;;;;;;;;;17.40;99.90;;;;;;4994818;28;19957;-76
2022/04/12 13:05:10;;;;;;;;;;;17.60;99.90;;;;;;4994560;28;20325;-76
2022/04/12 13:07:36;;;;;;;;;;;17.70;99.90;;;;;;4994510;28;19914;-77
2022/04/12 13:10:10;;;;;;;;;;;17.50;99.90;;;;;;4976865;28;19914;-77
2022/04/12 13:12:36;;;;;;;;;;;17.50;99.90;;;;;;4994333;28;19932;-78
2022/04/12 13:15:02;;;;;;;;;;;17.10;99.90;;;;;;4994124;28;19941;-77
2022/04/12 13:17:30;;;;;;;;;;;17.10;99.90;;;;;;4993704;28;20212;-77
2022/04/12 13:19:56;;;;;;;;;;;16.90;99.90;;;;;;4976774;28;20384;-78
2022/04/12 13:22:23;;;;;;;;;;;16.90;99.90;;;;;;4992922;28;20321;-76
2022/04/12 13:24:49;;;;;;;;;;;17.00;99.90;;;;;;4994302;28;19917;-78
2022/04/12 13:27:14;;;;;;;;;;;17.40;99.90;;;;;;4994220;28;19910;-78
2022/04/12 13:29:40;;;;;;;;;;;17.60;99.90;;;;;;4994221;28;19913;-77
2022/04/12 13:32:06;;;;;;;;;;;17.20;99.90;;;;;;4994251;28;20369;-77
2022/04/12 13:34:31;;;;;;;;;;;17.20;99.90;;;;;;4994152;28;19925;-78
2022/04/12 13:36:57;;;;;;;;;;;17.10;99.90;;;;;;4994219;28;20060;-78
2022/04/12 13:39:22;;;;;;;;;;;16.80;99.90;;;;;;4994111;28;19910;-77
2022/04/12 13:41:49;;;;;;;;;;;16.70;99.90;;;;;;4993800;28;19988;-77
2022/04/12 13:44:14;;;;;;;;;;;17.20;99.90;;;;;;4994032;28;19910;-77
2022/04/12 13:46:40;;;;;;;;;;;17.90;99.90;;;;;;4994054;28;20259;-76
2022/04/12 13:49:06;;;;;;;;;;;17.70;99.90;;;;;;4993895;28;19914;-77
2022/04/12 13:51:32;;;;;;;;;;;18.60;99.90;;;;;;4994150;28;19914;-77
2022/04/12 13:53:58;;;;;;;;;;;19.80;99.90;;;;;;4976469;28;19909;-77
2022/04/12 13:56:23;;;;;;;;;;;19.90;99.90;;;;;;4992477;28;20389;-77
2022/04/12 13:58:49;;;;;;;;;;;19.60;99.90;;;;;;4994061;28;19910;-76
2022/04/12 14:01:15;;;;;;;;;;;19.20;99.90;;;;;;4993878;28;20374;-77
2022/04/12 14:03:40;;;;;;;;;;;18.90;99.90;;;;;;4993916;28;19924;-76
2022/04/12 14:06:06;;;;;;;;;;;19.10;99.90;;;;;;4994062;28;20333;-77
2022/04/12 14:08:32;;;;;;;;;;;19.50;99.90;;;;;;4993800;28;20337;-77
2022/04/12 14:10:58;;;;;;;;;;;20.30;99.90;;;;;;4996653;28;19916;-77
2022/04/12 14:13:24;;;;;;;;;;;19.80;99.90;;;;;;4997452;28;19914;-78
2022/04/12 14:15:50;;;;;;;;;;;20.30;99.90;;;;;;4996953;28;19972;-79